createdAt,value
2023-03-26T00:02:05.029Z,12.73
2023-03-26T00:04:34.539Z,12.81
2023-03-26T00:07:03.090Z,12.89
2023-03-26T00:09:31.190Z,12.87
2023-03-26T00:11:59.092Z,12.77
2023-03-26T00:14:27.146Z,12.80
2023-03-26T00:16:56.561Z,12.72
2023-03-26T00:19:25.300Z,12.76
2023-03-26T00:21:53.387Z,12.89
2023-03-26T00:24:21.597Z,12.89
2023-03-26T00:26:53.420Z,12.84
2023-03-26T00:29:23.001Z,12.90
2023-03-26T00:31:51.029Z,12.90
2023-03-26T00:34:20.797Z,12.92
2023-03-26T00:36:54.907Z,12.93
2023-03-26T00:39:24.028Z,12.87
2023-03-26T00:41:54.647Z,12.79
2023-03-26T00:44:23.242Z,12.87
2023-03-26T00:46:51.477Z,12.69
2023-03-26T00:49:20.873Z,12.57
2023-03-26T00:51:48.908Z,12.57
2023-03-26T00:54:17.426Z,12.49
2023-03-26T00:56:45.428Z,12.62
2023-03-26T00:59:13.396Z,12.63
2023-03-26T01:01:41.801Z,12.71
2023-03-26T01:04:28.398Z,12.50
2023-03-26T01:06:58.580Z,12.58
2023-03-26T01:09:33.073Z,12.55
2023-03-26T01:12:02.110Z,12.55
2023-03-26T01:14:30.455Z,12.22
2023-03-26T01:17:00.156Z,12.23
2023-03-26T01:19:38.341Z,12.25
2023-03-26T01:22:06.954Z,12.14
2023-03-26T01:24:36.471Z,11.98
2023-03-26T01:27:24.390Z,11.83
2023-03-26T01:29:55.799Z,11.69
2023-03-26T01:32:34.320Z,11.58
2023-03-26T01:35:17.303Z,11.66
2023-03-26T01:37:58.970Z,11.51
2023-03-26T01:40:31.840Z,11.71
2023-03-26T01:43:07.387Z,11.59
2023-03-26T01:45:39.350Z,11.67
2023-03-26T01:48:09.158Z,11.63
2023-03-26T01:50:37.161Z,11.56
2023-03-26T01:53:05.775Z,11.70
2023-03-26T01:55:54.013Z,11.71
2023-03-26T01:58:30.541Z,11.73
2023-03-26T02:01:07.361Z,11.73
2023-03-26T02:03:41.005Z,11.70
2023-03-26T02:06:17.749Z,11.79
2023-03-26T02:08:52.893Z,11.70
2023-03-26T02:11:23.350Z,11.46
2023-03-26T02:13:53.006Z,11.67
2023-03-26T02:16:21.892Z,11.75
2023-03-26T02:18:55.745Z,11.61
2023-03-26T02:21:26.277Z,11.58
2023-03-26T02:23:58.100Z,11.57
2023-03-26T02:26:27.500Z,11.55
2023-03-26T02:28:55.478Z,11.61
2023-03-26T02:31:26.466Z,11.67
2023-03-26T02:33:55.622Z,11.52
2023-03-26T02:36:28.165Z,11.55
2023-03-26T02:38:57.998Z,11.58
2023-03-26T02:41:27.508Z,11.53
2023-03-26T02:43:55.516Z,11.54
2023-03-26T02:46:23.677Z,11.54
2023-03-26T02:48:51.626Z,11.66
2023-03-26T02:51:20.217Z,11.56
2023-03-26T02:53:48.164Z,11.58
2023-03-26T02:56:16.098Z,11.55
2023-03-26T02:58:46.773Z,11.65
2023-03-26T03:01:18.527Z,11.60
2023-03-26T03:03:48.605Z,11.56
2023-03-26T03:06:18.906Z,11.61
2023-03-26T03:08:47.538Z,11.51
2023-03-26T03:11:17.773Z,11.67
2023-03-26T03:13:47.182Z,11.65
2023-03-26T03:16:15.340Z,11.56
2023-03-26T03:18:43.346Z,11.51
2023-03-26T03:21:11.274Z,11.53
2023-03-26T03:23:39.195Z,11.56
2023-03-26T03:26:13.681Z,11.58
2023-03-26T03:28:41.854Z,11.65
2023-03-26T03:31:11.270Z,11.53
2023-03-26T03:33:39.228Z,11.60
2023-03-26T03:36:19.942Z,11.61
2023-03-26T03:38:51.206Z,11.65
2023-03-26T03:41:19.343Z,11.59
2023-03-26T03:43:47.597Z,11.55
2023-03-26T03:46:16.991Z,11.53
2023-03-26T03:48:49.642Z,11.58
2023-03-26T03:51:18.295Z,11.45
2023-03-26T03:53:46.363Z,11.52
2023-03-26T03:56:14.812Z,11.45
2023-03-26T03:58:45.537Z,11.27
2023-03-26T04:01:15.238Z,11.38
2023-03-26T04:03:46.863Z,11.41
2023-03-26T04:06:19.104Z,11.38
2023-03-26T04:08:47.284Z,11.40
2023-03-26T04:11:15.593Z,11.22
2023-03-26T04:13:44.001Z,11.23
2023-03-26T04:16:12.543Z,11.14
2023-03-26T04:18:40.900Z,11.25
2023-03-26T04:21:12.767Z,11.22
2023-03-26T04:23:42.375Z,11.20
2023-03-26T04:26:16.862Z,11.11
2023-03-26T04:28:49.161Z,11.06
2023-03-26T04:31:24.232Z,10.93
2023-03-26T04:33:55.467Z,11.29
2023-03-26T04:36:28.569Z,11.17
2023-03-26T04:38:58.412Z,11.07
2023-03-26T04:41:27.718Z,11.13
2023-03-26T04:43:56.836Z,11.14
2023-03-26T04:46:25.194Z,11.09
2023-03-26T04:48:54.738Z,11.05
2023-03-26T04:51:28.304Z,11.03
2023-03-26T04:53:59.114Z,11.02
2023-03-26T04:56:38.572Z,11.13
2023-03-26T04:59:08.241Z,11.32
2023-03-26T05:01:37.782Z,11.31
2023-03-26T05:04:06.332Z,11.40
2023-03-26T05:06:38.252Z,11.60
2023-03-26T05:09:06.954Z,11.62
2023-03-26T05:11:35.252Z,11.58
2023-03-26T05:14:03.307Z,11.74
2023-03-26T05:16:32.361Z,11.87
2023-03-26T05:19:00.353Z,11.70
2023-03-26T05:21:28.423Z,11.60
2023-03-26T05:23:57.738Z,11.78
2023-03-26T05:26:27.242Z,11.64
2023-03-26T05:28:55.148Z,11.72
2023-03-26T05:31:23.163Z,11.66
2023-03-26T05:33:51.180Z,11.73
2023-03-26T05:36:19.338Z,11.61
2023-03-26T05:38:49.349Z,11.67
2023-03-26T05:41:19.409Z,11.42
2023-03-26T05:43:47.884Z,11.47
2023-03-26T05:46:16.483Z,11.27
2023-03-26T05:48:44.818Z,11.25
2023-03-26T05:51:13.198Z,11.26
2023-03-26T05:53:41.175Z,11.24
2023-03-26T05:56:09.874Z,11.17
2023-03-26T05:58:39.675Z,11.22
2023-03-26T06:01:09.580Z,11.02
2023-03-26T06:03:40.176Z,11.08
2023-03-26T06:06:09.270Z,10.95
2023-03-26T06:08:37.316Z,10.86
2023-03-26T06:11:08.283Z,10.66
2023-03-26T06:13:36.452Z,10.47
2023-03-26T06:16:06.400Z,10.49
2023-03-26T06:18:34.440Z,10.57
2023-03-26T06:21:02.433Z,10.55
2023-03-26T06:23:30.395Z,10.59
2023-03-26T06:25:58.803Z,10.78
2023-03-26T06:28:26.859Z,10.94
2023-03-26T06:30:55.069Z,10.87
2023-03-26T06:33:24.737Z,10.97
2023-03-26T06:35:52.714Z,11.03
2023-03-26T06:38:20.720Z,11.31
2023-03-26T06:40:48.748Z,11.45
2023-03-26T06:43:16.662Z,11.49
2023-03-26T06:45:44.566Z,11.68
2023-03-26T06:48:12.489Z,12.13
2023-03-26T06:50:41.790Z,12.50
2023-03-26T06:53:10.462Z,12.60
2023-03-26T06:55:38.360Z,12.90
2023-03-26T06:58:06.274Z,13.11
2023-03-26T07:00:34.286Z,13.09
2023-03-26T07:03:04.761Z,13.23
2023-03-26T07:05:33.348Z,13.31
2023-03-26T07:08:02.996Z,13.12
2023-03-26T07:10:31.019Z,13.07
2023-03-26T07:12:58.978Z,13.16
2023-03-26T07:15:28.597Z,13.12
2023-03-26T07:17:56.746Z,13.11
2023-03-26T07:20:25.567Z,13.42
2023-03-26T07:22:54.281Z,13.47
2023-03-26T07:25:24.361Z,13.68
2023-03-26T07:28:01.844Z,13.88
2023-03-26T07:30:35.539Z,14.11
2023-03-26T07:33:06.774Z,14.32
2023-03-26T07:35:42.814Z,14.42
2023-03-26T07:38:30.791Z,14.54
2023-03-26T07:41:07.578Z,14.51
2023-03-26T07:43:50.266Z,14.60
2023-03-26T07:46:24.074Z,14.82
2023-03-26T07:48:54.314Z,15.08
2023-03-26T07:51:22.784Z,15.27
2023-03-26T07:53:51.204Z,15.58
2023-03-26T07:56:22.413Z,15.84
2023-03-26T07:59:00.922Z,16.12
2023-03-26T08:01:44.977Z,16.32
2023-03-26T08:04:46.017Z,16.09
2023-03-26T08:07:23.136Z,16.46
2023-03-26T08:10:02.781Z,16.74
2023-03-26T08:12:43.004Z,17.28
2023-03-26T08:15:18.034Z,17.45
2023-03-26T08:17:53.419Z,17.20
2023-03-26T08:20:32.200Z,17.22
2023-03-26T08:23:09.472Z,17.16
2023-03-26T08:25:49.978Z,16.93
2023-03-26T08:28:30.703Z,16.83
2023-03-26T08:30:59.046Z,17.09
2023-03-26T08:33:28.701Z,17.33
2023-03-26T08:35:56.798Z,17.66
2023-03-26T08:38:25.037Z,17.17
2023-03-26T08:41:37.541Z,17.19
2023-03-26T08:44:36.444Z,17.21
2023-03-26T08:47:22.087Z,17.08
2023-03-26T08:50:39.096Z,16.62
2023-03-26T08:53:48.507Z,16.45
2023-03-26T08:56:24.164Z,16.48
2023-03-26T08:59:20.521Z,17.17
2023-03-26T09:02:17.011Z,17.79
2023-03-26T09:05:20.129Z,17.65
2023-03-26T09:08:31.871Z,17.68
2023-03-26T09:11:22.283Z,17.82
2023-03-26T09:14:40.678Z,17.46
2023-03-26T09:17:57.896Z,17.63
2023-03-26T09:21:03.122Z,16.84
2023-03-26T09:24:03.209Z,16.68
2023-03-26T09:26:47.393Z,16.94
2023-03-26T09:29:33.513Z,16.80
2023-03-26T09:32:42.251Z,17.21
2023-03-26T09:35:15.813Z,17.25
2023-03-26T09:37:58.541Z,17.59
2023-03-26T09:40:37.276Z,17.06
2023-03-26T09:43:30.358Z,16.68
2023-03-26T09:46:15.295Z,17.19
2023-03-26T09:48:58.396Z,17.60
2023-03-26T09:51:42.480Z,17.75
2023-03-26T09:54:31.135Z,17.36
2023-03-26T09:57:08.433Z,17.51
2023-03-26T10:00:04.574Z,17.67
2023-03-26T10:03:09.323Z,17.29
2023-03-26T10:05:44.877Z,17.36
2023-03-26T10:08:29.719Z,17.27
2023-03-26T10:11:06.258Z,16.94
2023-03-26T10:13:45.021Z,16.80
2023-03-26T10:16:22.649Z,16.59
2023-03-26T10:19:04.080Z,16.86
2023-03-26T10:21:44.697Z,17.31
2023-03-26T10:24:29.244Z,17.28
2023-03-26T10:27:11.026Z,17.31
2023-03-26T10:30:03.354Z,17.58
2023-03-26T10:32:40.070Z,17.33
2023-03-26T10:35:21.515Z,17.57
2023-03-26T10:38:02.776Z,17.45
2023-03-26T10:40:42.984Z,17.88
2023-03-26T10:43:41.766Z,18.48
2023-03-26T10:46:45.383Z,18.25
2023-03-26T10:49:31.354Z,18.43
2023-03-26T10:52:00.853Z,19.01
2023-03-26T10:54:40.050Z,19.46
2023-03-26T10:57:21.707Z,19.11
2023-03-26T10:59:49.710Z,19.17
2023-03-26T11:02:30.428Z,19.68
2023-03-26T11:05:19.843Z,20.01
2023-03-26T11:07:54.015Z,19.39
2023-03-26T11:10:34.380Z,19.69
2023-03-26T11:13:15.960Z,19.88
2023-03-26T11:15:54.048Z,19.54
2023-03-26T11:18:26.631Z,18.88
2023-03-26T11:21:18.682Z,18.55
2023-03-26T11:24:05.225Z,19.37
2023-03-26T11:26:49.090Z,19.98
2023-03-26T11:29:40.716Z,20.57
2023-03-26T11:32:13.493Z,20.51
2023-03-26T11:34:47.348Z,19.48
2023-03-26T11:37:22.649Z,20.17
2023-03-26T11:39:56.453Z,20.26
2023-03-26T11:42:26.134Z,19.33
2023-03-26T11:44:58.539Z,18.99
2023-03-26T11:47:33.328Z,18.99
2023-03-26T11:50:03.331Z,18.94
2023-03-26T11:52:31.657Z,18.51
2023-03-26T11:54:59.826Z,18.02
2023-03-26T11:57:33.365Z,18.27
2023-03-26T12:00:15.896Z,18.12
2023-03-26T12:02:45.334Z,18.54
2023-03-26T12:05:20.471Z,19.22
2023-03-26T12:07:53.556Z,19.50
2023-03-26T12:10:32.323Z,18.99
2023-03-26T12:13:02.824Z,18.96
2023-03-26T12:15:33.150Z,19.47
2023-03-26T12:18:21.626Z,19.83
2023-03-26T12:20:49.584Z,19.43
2023-03-26T12:23:38.737Z,19.02
2023-03-26T12:26:15.013Z,19.47
2023-03-26T12:28:46.117Z,19.70
2023-03-26T12:31:18.515Z,19.90
2023-03-26T12:33:52.885Z,20.02
2023-03-26T12:36:26.478Z,19.36
2023-03-26T12:39:17.080Z,19.51
2023-03-26T12:43:40.324Z,19.80
2023-03-26T12:44:53.672Z,20.00
2023-03-26T12:47:59.790Z,19.81
2023-03-26T12:50:16.692Z,19.67
2023-03-26T12:52:58.090Z,19.77
2023-03-26T12:55:42.303Z,19.87
2023-03-26T12:58:30.263Z,19.65
2023-03-26T13:01:09.054Z,19.18
2023-03-26T13:03:50.628Z,19.48
2023-03-26T13:06:31.061Z,19.55
2023-03-26T13:09:24.344Z,19.28
2023-03-26T13:12:03.795Z,19.30
2023-03-26T13:14:57.747Z,18.60
2023-03-26T13:17:36.036Z,17.69
2023-03-26T13:20:12.572Z,17.68
2023-03-26T13:22:50.158Z,18.14
2023-03-26T13:25:28.664Z,18.27
2023-03-26T13:28:05.070Z,18.29
2023-03-26T13:30:42.591Z,18.36
2023-03-26T13:33:27.782Z,17.77
2023-03-26T13:36:21.615Z,17.45
2023-03-26T13:39:03.527Z,17.65
2023-03-26T13:41:44.033Z,18.04
2023-03-26T13:44:23.273Z,18.10
2023-03-26T13:46:54.543Z,18.23
2023-03-26T13:49:37.270Z,17.97
2023-03-26T13:52:11.704Z,17.79
2023-03-26T13:54:45.647Z,17.82
2023-03-26T13:57:20.282Z,17.83
2023-03-26T13:59:54.651Z,17.85
2023-03-26T14:02:28.911Z,18.09
2023-03-26T14:05:04.761Z,18.08
2023-03-26T14:07:40.010Z,17.73
2023-03-26T14:10:13.270Z,17.93
2023-03-26T14:12:53.248Z,18.03
2023-03-26T14:15:27.907Z,18.10
2023-03-26T14:18:06.086Z,18.11
2023-03-26T14:21:09.897Z,17.67
2023-03-26T14:24:10.663Z,17.74
2023-03-26T14:26:56.114Z,17.54
2023-03-26T14:29:32.505Z,17.59
2023-03-26T14:32:16.510Z,17.63
2023-03-26T14:35:23.447Z,17.61
2023-03-26T14:38:04.140Z,17.52
2023-03-26T14:40:51.224Z,17.21
2023-03-26T14:43:42.021Z,17.19
2023-03-26T14:46:23.509Z,17.06
2023-03-26T14:49:07.089Z,16.83
2023-03-26T14:51:49.844Z,16.93
2023-03-26T14:54:21.986Z,16.94
2023-03-26T14:57:23.275Z,16.60
2023-03-26T15:00:27.114Z,16.52
2023-03-26T15:03:48.911Z,16.55
2023-03-26T15:06:56.733Z,16.41
2023-03-26T15:10:02.640Z,16.55
2023-03-26T15:12:44.229Z,16.30
2023-03-26T15:15:54.620Z,16.22
2023-03-26T15:18:58.910Z,16.32
2023-03-26T15:22:26.003Z,16.21
2023-03-26T15:25:23.639Z,16.06
2023-03-26T15:28:01.234Z,15.94
2023-03-26T15:30:53.296Z,15.91
2023-03-26T15:33:55.306Z,15.64
2023-03-26T15:36:53.561Z,15.64
2023-03-26T15:39:59.612Z,15.61
2023-03-26T15:42:38.118Z,15.47
2023-03-26T15:45:36.396Z,15.52
2023-03-26T15:48:52.204Z,15.47
2023-03-26T15:51:47.177Z,15.29
2023-03-26T15:54:24.230Z,15.25
2023-03-26T15:57:07.288Z,15.20
2023-03-26T15:59:43.644Z,15.05
2023-03-26T16:02:26.657Z,14.96
2023-03-26T16:04:56.004Z,14.83
2023-03-26T16:07:41.420Z,14.85
2023-03-26T16:10:23.990Z,14.69
2023-03-26T16:13:15.882Z,14.80
2023-03-26T16:15:44.940Z,14.73
2023-03-26T16:18:34.390Z,14.70
2023-03-26T16:21:37.526Z,14.48
2023-03-26T16:24:27.494Z,14.17
2023-03-26T16:27:08.262Z,13.62
2023-03-26T16:30:20.184Z,13.57
2023-03-26T16:32:56.315Z,13.24
2023-03-26T16:35:51.047Z,13.55
2023-03-26T16:38:21.605Z,13.36
2023-03-26T16:41:04.036Z,13.16
2023-03-26T16:43:45.446Z,13.19
2023-03-26T16:46:27.027Z,13.14
2023-03-26T16:49:01.617Z,13.00
2023-03-26T16:51:45.672Z,12.84
2023-03-26T16:54:23.392Z,12.90
2023-03-26T16:57:01.136Z,12.87
2023-03-26T17:00:08.746Z,12.77
2023-03-26T17:02:49.953Z,12.51
2023-03-26T17:05:21.739Z,12.53
2023-03-26T17:08:01.300Z,12.58
2023-03-26T17:10:37.072Z,12.43
2023-03-26T17:13:11.526Z,12.53
2023-03-26T17:15:48.768Z,12.34
2023-03-26T17:18:41.144Z,12.37
2023-03-26T17:21:16.156Z,12.31
2023-03-26T17:24:01.530Z,12.32
2023-03-26T17:26:42.656Z,12.20
2023-03-26T17:29:25.433Z,12.15
2023-03-26T17:31:59.753Z,12.08
2023-03-26T17:35:02.134Z,11.93
2023-03-26T17:37:45.868Z,12.05
2023-03-26T17:40:49.710Z,12.18
2023-03-26T17:43:46.179Z,12.07
2023-03-26T17:46:23.980Z,11.88
2023-03-26T17:48:59.180Z,11.57
2023-03-26T17:51:48.932Z,11.28
2023-03-26T17:54:23.472Z,11.31
2023-03-26T17:56:53.797Z,11.34
2023-03-26T17:59:24.278Z,11.35
2023-03-26T18:01:56.722Z,11.31
2023-03-26T18:04:32.601Z,11.50
2023-03-26T18:07:18.403Z,11.28
2023-03-26T18:10:08.820Z,11.20
2023-03-26T18:13:02.778Z,11.15
2023-03-26T18:15:46.847Z,11.28
2023-03-26T18:18:20.844Z,11.40
2023-03-26T18:20:50.692Z,11.37
2023-03-26T18:23:25.129Z,11.65
2023-03-26T18:25:58.110Z,11.49
2023-03-26T18:28:36.968Z,11.55
2023-03-26T18:31:19.677Z,11.70
2023-03-26T18:33:51.675Z,11.37
2023-03-26T18:36:27.833Z,11.05
2023-03-26T18:38:59.121Z,10.91
2023-03-26T18:41:31.582Z,11.00
2023-03-26T18:44:03.601Z,11.14
2023-03-26T18:46:32.905Z,10.68
2023-03-26T18:49:03.514Z,10.89
2023-03-26T18:51:36.427Z,10.68
2023-03-26T18:54:10.610Z,10.48
2023-03-26T18:56:40.353Z,10.79
2023-03-26T18:59:27.904Z,10.74
2023-03-26T19:01:58.379Z,10.22
2023-03-26T19:04:33.404Z,9.93
2023-03-26T19:07:02.210Z,9.88
2023-03-26T19:09:32.623Z,9.96
2023-03-26T19:12:08.266Z,10.04
2023-03-26T19:14:52.179Z,10.45
2023-03-26T19:17:20.524Z,10.49
2023-03-26T19:19:50.800Z,10.20
2023-03-26T19:22:20.022Z,10.08
2023-03-26T19:24:48.389Z,10.07
2023-03-26T19:27:16.798Z,9.94
2023-03-26T19:29:45.573Z,9.97
2023-03-26T19:32:22.786Z,10.32
2023-03-26T19:34:53.520Z,10.16
2023-03-26T19:37:25.139Z,9.88
2023-03-26T19:39:55.025Z,9.96
2023-03-26T19:42:26.765Z,10.06
2023-03-26T19:44:55.472Z,9.68
2023-03-26T19:47:39.070Z,9.91
2023-03-26T19:50:25.523Z,9.96
2023-03-26T19:53:16.869Z,9.97
2023-03-26T19:55:55.698Z,9.82
2023-03-26T19:58:24.072Z,9.48
2023-03-26T20:00:52.004Z,9.78
2023-03-26T20:03:26.837Z,9.54
2023-03-26T20:05:56.400Z,9.65
2023-03-26T20:08:27.221Z,9.64
2023-03-26T20:10:56.750Z,9.42
2023-03-26T20:13:25.175Z,9.63
2023-03-26T20:16:05.753Z,9.83
2023-03-26T20:18:34.846Z,9.48
2023-03-26T20:21:11.429Z,9.64
2023-03-26T20:23:39.468Z,9.87
2023-03-26T20:26:11.133Z,9.66
2023-03-26T20:28:47.504Z,9.73
2023-03-26T20:31:19.334Z,9.89
2023-03-26T20:33:48.022Z,9.99
2023-03-26T20:36:33.648Z,10.01
2023-03-26T20:39:06.583Z,10.07
2023-03-26T20:41:35.825Z,9.69
2023-03-26T20:44:05.887Z,9.53
2023-03-26T20:46:33.946Z,9.59
2023-03-26T20:49:02.030Z,9.56
2023-03-26T20:51:31.852Z,9.52
2023-03-26T20:54:00.601Z,9.59
2023-03-26T20:56:28.961Z,9.11
2023-03-26T21:01:29.161Z,8.92
2023-03-26T21:03:58.079Z,9.03
2023-03-26T21:06:26.172Z,8.73
2023-03-26T21:08:56.193Z,8.64
2023-03-26T21:11:41.000Z,8.42
2023-03-26T21:14:16.253Z,8.57
2023-03-26T21:16:44.767Z,8.50
2023-03-26T21:19:13.260Z,8.37
2023-03-26T21:21:50.721Z,8.35
2023-03-26T21:24:33.186Z,8.41
2023-03-26T21:27:11.698Z,8.44
2023-03-26T21:29:40.159Z,8.41
2023-03-26T21:32:12.207Z,8.57
2023-03-26T21:34:47.842Z,8.19
2023-03-26T21:37:24.695Z,7.77
2023-03-26T21:39:54.499Z,7.60
2023-03-26T21:42:26.864Z,7.83
2023-03-26T21:44:55.463Z,8.23
2023-03-26T21:47:23.935Z,8.23
2023-03-26T21:49:52.465Z,8.35
2023-03-26T21:52:22.590Z,7.92
2023-03-26T21:54:51.135Z,8.14
2023-03-26T21:57:48.593Z,8.44
2023-03-26T22:00:19.954Z,8.52
2023-03-26T22:03:02.973Z,8.37
2023-03-26T22:05:36.670Z,8.53
2023-03-26T22:08:07.078Z,8.06
2023-03-26T22:10:35.046Z,7.99
2023-03-26T22:13:04.334Z,8.19
2023-03-26T22:15:32.255Z,8.52
2023-03-26T22:18:04.403Z,8.06
2023-03-26T22:20:32.772Z,8.27
2023-03-26T22:23:01.858Z,8.33
2023-03-26T22:25:30.216Z,8.18
2023-03-26T22:27:58.511Z,8.33
2023-03-26T22:30:28.347Z,8.06
2023-03-26T22:32:56.912Z,7.81
2023-03-26T22:35:24.957Z,7.68
2023-03-26T22:37:53.030Z,7.88
2023-03-26T22:40:29.268Z,7.89
2023-03-26T22:42:57.260Z,7.89
2023-03-26T22:45:25.639Z,7.55
2023-03-26T22:48:03.081Z,7.63
2023-03-26T22:50:32.467Z,7.80
2023-03-26T22:53:00.583Z,7.38
2023-03-26T22:55:29.889Z,7.71
2023-03-26T22:57:58.205Z,7.69
2023-03-26T23:00:26.563Z,7.82
2023-03-26T23:03:00.543Z,7.79
2023-03-26T23:05:28.705Z,7.90
2023-03-26T23:07:57.156Z,7.97
2023-03-26T23:10:25.436Z,7.55
2023-03-26T23:12:53.855Z,7.66
2023-03-26T23:15:22.239Z,7.68
2023-03-26T23:17:54.660Z,7.30
2023-03-26T23:20:24.646Z,7.53
2023-03-26T23:22:52.652Z,7.60
2023-03-26T23:25:21.133Z,7.99
2023-03-26T23:27:50.730Z,8.01
2023-03-26T23:30:19.307Z,7.96
2023-03-26T23:32:47.520Z,7.97
2023-03-26T23:35:15.687Z,7.68
2023-03-26T23:37:44.984Z,7.62
2023-03-26T23:40:14.403Z,7.60
2023-03-26T23:42:42.545Z,7.23
2023-03-26T23:45:12.348Z,7.13
2023-03-26T23:47:42.343Z,6.88
2023-03-26T23:50:12.960Z,6.75
2023-03-26T23:52:41.116Z,6.82
2023-03-26T23:55:11.046Z,6.85
2023-03-26T23:57:38.986Z,6.73
